메인 페이지
METAR-TAF:

METAR-TAF

공항 :

주바, 수단

위도: 04-52N, 경도: 031-36E, 고도: 460m

METAR: 누락

시각: 23:29 (21:29 UTC)

예보

예보는 41 시간 29분 전, 04:00시(UTC)에 발표되었습니다.
예보 대상 시간: 12일 06시부터 13일 12시까지 (UTC)
5kt
시정 10km 이상
고도 4000ft 상공 구름 보통
고도 14000ft 상공 구름 많음
확률 30% :
일시적
12일 08시부터 12일 14시까지 (UTC)
동남동6kt, 순간 최대 풍속 16kt
시정: 6000m
고도 4500ft 상공 구름 조금, 적란운.
고도 9000ft 상공 구름 많음
뇌우, 비,

TAF: HSSJ 120400Z 1206/1312 09005KT 9999 SCT040 BKN140 PROB30 TEMPO 1208/1214 12006G16KT 6000 TSRA FEW045CB BKN090

4,000개 이상의 공항 관측 자료 및 예보 (METAR 및 TAF 보고).

지도상에서 검색 가능한 기상관측소가 노란 점과 빨간 점으로 표시되어 있습니다.

기상관측소 명을 보려면 표시 위로 마우스를 이동하세요.

날씨 관측과 예보를 보려면 클릭하세요.

지도 변경 : 확대하려면 엑스 표시가 있는 녹색 버튼, 축소하려면 빼기 표시가 있는 녹색 버튼, 다음 페이지의 지도를 보려면 녹색 화살표를 클릭하세요.


METAR-TAF: